sensor_id;sensor_type;location;lat;lon;timestamp;temperature;humidity
30889;DHT22;51092;50.874;7.024;2023-10-31T00:00:00;12.10;99.90
30889;DHT22;51092;50.874;7.024;2023-10-31T00:01:04;12.10;99.90
30889;DHT22;51092;50.874;7.024;2023-10-31T00:02:06;12.10;99.90
30889;DHT22;51092;50.874;7.024;2023-10-31T00:03:09;12.10;99.90
30889;DHT22;51092;50.874;7.024;2023-10-31T00:04:11;12.10;99.90
30889;DHT22;51092;50.874;7.024;2023-10-31T00:05:14;12.10;99.90
30889;DHT22;51092;50.874;7.024;2023-10-31T00:06:16;12.10;99.90
30889;DHT22;51092;50.874;7.024;2023-10-31T00:07:18;12.20;99.90
30889;DHT22;51092;50.874;7.024;2023-10-31T00:08:20;12.20;99.90
30889;DHT22;51092;50.874;7.024;2023-10-31T00:09:22;12.20;99.90
30889;DHT22;51092;50.874;7.024;2023-10-31T00:10:24;12.20;99.90
30889;DHT22;51092;50.874;7.024;2023-10-31T00:11:26;12.20;99.90
30889;DHT22;51092;50.874;7.024;2023-10-31T00:12:29;12.20;99.90
30889;DHT22;51092;50.874;7.024;2023-10-31T00:13:30;12.20;99.90
30889;DHT22;51092;50.874;7.024;2023-10-31T00:14:33;12.20;99.90
30889;DHT22;51092;50.874;7.024;2023-10-31T00:15:34;12.20;99.90
30889;DHT22;51092;50.874;7.024;2023-10-31T00:16:37;12.20;99.90
30889;DHT22;51092;50.874;7.024;2023-10-31T00:17:38;12.20;99.90
30889;DHT22;51092;50.874;7.024;2023-10-31T00:18:40;12.30;99.90
30889;DHT22;51092;50.874;7.024;2023-10-31T00:19:42;12.30;99.90
30889;DHT22;51092;50.874;7.024;2023-10-31T00:20:46;12.30;99.90
30889;DHT22;51092;50.874;7.024;2023-10-31T00:21:48;12.30;99.90
30889;DHT22;51092;50.874;7.024;2023-10-31T00:22:49;12.30;99.90
30889;DHT22;51092;50.874;7.024;2023-10-31T00:23:51;12.30;99.90
30889;DHT22;51092;50.874;7.024;2023-10-31T00:24:52;12.20;99.90
30889;DHT22;51092;50.874;7.024;2023-10-31T00:25:54;12.20;99.90
30889;DHT22;51092;50.874;7.024;2023-10-31T00:26:56;12.20;99.90
30889;DHT22;51092;50.874;7.024;2023-10-31T00:28:00;12.20;99.90
30889;DHT22;51092;50.874;7.024;2023-10-31T00:29:01;12.20;99.90
30889;DHT22;51092;50.874;7.024;2023-10-31T00:30:07;12.20;99.90
30889;DHT22;51092;50.874;7.024;2023-10-31T00:31:08;12.20;99.90
30889;DHT22;51092;50.874;7.024;2023-10-31T00:32:12;12.20;99.90
30889;DHT22;51092;50.874;7.024;2023-10-31T00:33:13;12.20;99.90
30889;DHT22;51092;50.874;7.024;2023-10-31T00:34:14;12.20;99.90
30889;DHT22;51092;50.874;7.024;2023-10-31T00:35:16;12.20;99.90
30889;DHT22;51092;50.874;7.024;2023-10-31T00:36:17;12.20;99.90
30889;DHT22;51092;50.874;7.024;2023-10-31T00:37:20;12.20;99.90
30889;DHT22;51092;50.874;7.024;2023-10-31T00:38:21;12.20;99.90
30889;DHT22;51092;50.874;7.024;2023-10-31T00:39:23;12.20;99.90
30889;DHT22;51092;50.874;7.024;2023-10-31T00:40:25;12.20;99.90
30889;DHT22;51092;50.874;7.024;2023-10-31T00:41:28;12.20;99.90
30889;DHT22;51092;50.874;7.024;2023-10-31T00:42:29;12.20;99.90
30889;DHT22;51092;50.874;7.024;2023-10-31T00:43:34;12.20;99.90
30889;DHT22;51092;50.874;7.024;2023-10-31T00:44:35;12.20;99.90
30889;DHT22;51092;50.874;7.024;2023-10-31T00:45:37;12.20;99.90
30889;DHT22;51092;50.874;7.024;2023-10-31T00:46:39;12.20;99.90
30889;DHT22;51092;50.874;7.024;2023-10-31T00:47:42;12.20;99.90
30889;DHT22;51092;50.874;7.024;2023-10-31T00:48:43;12.20;99.90
30889;DHT22;51092;50.874;7.024;2023-10-31T00:49:45;12.20;99.90
30889;DHT22;51092;50.874;7.024;2023-10-31T00:50:47;12.20;99.90
30889;DHT22;51092;50.874;7.024;2023-10-31T00:51:49;12.20;99.90
30889;DHT22;51092;50.874;7.024;2023-10-31T00:52:51;12.10;99.90
30889;DHT22;51092;50.874;7.024;2023-10-31T00:53:53;12.10;99.90
30889;DHT22;51092;50.874;7.024;2023-10-31T00:54:55;12.10;99.90
30889;DHT22;51092;50.874;7.024;2023-10-31T00:55:57;12.10;99.90
30889;DHT22;51092;50.874;7.024;2023-10-31T00:56:59;12.00;99.90
30889;DHT22;51092;50.874;7.024;2023-10-31T00:58:01;12.00;99.90
30889;DHT22;51092;50.874;7.024;2023-10-31T00:59:04;12.00;99.90
30889;DHT22;51092;50.874;7.024;2023-10-31T01:00:07;12.00;99.90
30889;DHT22;51092;50.874;7.024;2023-10-31T01:01:09;11.90;99.90
30889;DHT22;51092;50.874;7.024;2023-10-31T01:02:11;11.90;99.90
30889;DHT22;51092;50.874;7.024;2023-10-31T01:03:13;11.90;99.90
30889;DHT22;51092;50.874;7.024;2023-10-31T01:04:15;11.90;99.90
30889;DHT22;51092;50.874;7.024;2023-10-31T01:05:17;11.90;99.90
30889;DHT22;51092;50.874;7.024;2023-10-31T01:06:19;11.90;99.90
30889;DHT22;51092;50.874;7.024;2023-10-31T01:07:21;11.80;99.90
30889;DHT22;51092;50.874;7.024;2023-10-31T01:08:23;11.80;99.90
30889;DHT22;51092;50.874;7.024;2023-10-31T01:09:25;11.80;99.90
30889;DHT22;51092;50.874;7.024;2023-10-31T01:10:27;11.80;99.90
30889;DHT22;51092;50.874;7.024;2023-10-31T01:11:29;11.80;99.90
30889;DHT22;51092;50.874;7.024;2023-10-31T01:12:31;11.80;99.90
30889;DHT22;51092;50.874;7.024;2023-10-31T01:13:33;11.80;99.90
30889;DHT22;51092;50.874;7.024;2023-10-31T01:14:36;11.80;99.90
30889;DHT22;51092;50.874;7.024;2023-10-31T01:15:39;11.70;99.90
30889;DHT22;51092;50.874;7.024;2023-10-31T01:16:41;11.70;99.90
30889;DHT22;51092;50.874;7.024;2023-10-31T01:17:43;11.70;99.90
30889;DHT22;51092;50.874;7.024;2023-10-31T01:18:45;11.70;99.90
30889;DHT22;51092;50.874;7.024;2023-10-31T01:19:47;11.70;99.90
30889;DHT22;51092;50.874;7.024;2023-10-31T01:20:48;11.60;99.90
30889;DHT22;51092;50.874;7.024;2023-10-31T01:21:50;11.60;99.90
30889;DHT22;51092;50.874;7.024;2023-10-31T01:22:52;11.60;99.90
30889;DHT22;51092;50.874;7.024;2023-10-31T01:23:54;11.50;99.90
30889;DHT22;51092;50.874;7.024;2023-10-31T01:24:56;11.50;99.90
30889;DHT22;51092;50.874;7.024;2023-10-31T01:25:58;11.50;99.90
30889;DHT22;51092;50.874;7.024;2023-10-31T01:27:00;11.50;99.90
30889;DHT22;51092;50.874;7.024;2023-10-31T01:28:01;11.40;99.90
30889;DHT22;51092;50.874;7.024;2023-10-31T01:29:04;11.40;99.90
30889;DHT22;51092;50.874;7.024;2023-10-31T01:30:08;11.40;99.90
30889;DHT22;51092;50.874;7.024;2023-10-31T01:31:11;11.40;99.90
30889;DHT22;51092;50.874;7.024;2023-10-31T01:32:12;11.30;99.90
30889;DHT22;51092;50.874;7.024;2023-10-31T01:33:15;11.30;99.90
30889;DHT22;51092;50.874;7.024;2023-10-31T01:34:17;11.30;99.90
30889;DHT22;51092;50.874;7.024;2023-10-31T01:35:19;11.30;99.90
30889;DHT22;51092;50.874;7.024;2023-10-31T01:36:24;11.20;99.90
30889;DHT22;51092;50.874;7.024;2023-10-31T01:37:25;11.20;99.90
30889;DHT22;51092;50.874;7.024;2023-10-31T01:38:27;11.20;99.90
30889;DHT22;51092;50.874;7.024;2023-10-31T01:39:28;11.20;99.90
30889;DHT22;51092;50.874;7.024;2023-10-31T01:40:30;11.20;99.90
30889;DHT22;51092;50.874;7.024;2023-10-31T01:41:31;11.20;99.90
30889;DHT22;51092;50.874;7.024;2023-10-31T01:42:34;11.10;99.90
30889;DHT22;51092;50.874;7.024;2023-10-31T01:43:36;11.10;99.90
30889;DHT22;51092;50.874;7.024;2023-10-31T01:44:38;11.10;99.90
30889;DHT22;51092;50.874;7.024;2023-10-31T01:45:40;11.10;99.90
30889;DHT22;51092;50.874;7.024;2023-10-31T01:46:42;11.10;99.90
30889;DHT22;51092;50.874;7.024;2023-10-31T01:47:45;11.10;99.90
30889;DHT22;51092;50.874;7.024;2023-10-31T01:48:48;11.10;99.90
30889;DHT22;51092;50.874;7.024;2023-10-31T01:49:50;11.10;99.90
30889;DHT22;51092;50.874;7.024;2023-10-31T01:50:52;11.20;99.90
30889;DHT22;51092;50.874;7.024;2023-10-31T01:51:55;11.20;99.90
30889;DHT22;51092;50.874;7.024;2023-10-31T01:52:57;11.20;99.90
30889;DHT22;51092;50.874;7.024;2023-10-31T01:53:59;11.20;99.90
30889;DHT22;51092;50.874;7.024;2023-10-31T01:55:01;11.20;99.90
30889;DHT22;51092;50.874;7.024;2023-10-31T01:56:05;11.10;99.90
30889;DHT22;51092;50.874;7.024;2023-10-31T01:57:07;11.10;99.90
30889;DHT22;51092;50.874;7.024;2023-10-31T01:58:10;11.10;99.90
30889;DHT22;51092;50.874;7.024;2023-10-31T01:59:12;11.00;99.90
30889;DHT22;51092;50.874;7.024;2023-10-31T02:00:16;11.00;99.90
30889;DHT22;51092;50.874;7.024;2023-10-31T02:01:19;11.00;99.90
30889;DHT22;51092;50.874;7.024;2023-10-31T02:02:23;10.90;99.90
30889;DHT22;51092;50.874;7.024;2023-10-31T02:03:24;10.90;99.90
30889;DHT22;51092;50.874;7.024;2023-10-31T02:04:26;10.90;99.90
30889;DHT22;51092;50.874;7.024;2023-10-31T02:05:28;10.90;99.90
30889;DHT22;51092;50.874;7.024;2023-10-31T02:06:33;10.90;99.90
30889;DHT22;51092;50.874;7.024;2023-10-31T02:07:34;10.90;99.90
30889;DHT22;51092;50.874;7.024;2023-10-31T02:08:37;10.90;99.90
30889;DHT22;51092;50.874;7.024;2023-10-31T02:09:39;10.80;99.90
30889;DHT22;51092;50.874;7.024;2023-10-31T02:10:41;10.80;99.90
30889;DHT22;51092;50.874;7.024;2023-10-31T02:11:43;10.80;99.90
30889;DHT22;51092;50.874;7.024;2023-10-31T02:12:45;10.70;99.90
30889;DHT22;51092;50.874;7.024;2023-10-31T02:13:46;10.80;99.90
30889;DHT22;51092;50.874;7.024;2023-10-31T02:14:49;10.70;99.90
30889;DHT22;51092;50.874;7.024;2023-10-31T02:15:50;10.70;99.90
30889;DHT22;51092;50.874;7.024;2023-10-31T02:16:54;10.70;99.90
30889;DHT22;51092;50.874;7.024;2023-10-31T02:17:56;10.60;99.90
30889;DHT22;51092;50.874;7.024;2023-10-31T02:18:58;10.60;99.90
30889;DHT22;51092;50.874;7.024;2023-10-31T02:20:00;10.60;99.90
30889;DHT22;51092;50.874;7.024;2023-10-31T02:21:03;10.60;99.90
30889;DHT22;51092;50.874;7.024;2023-10-31T02:22:06;10.60;99.90
30889;DHT22;51092;50.874;7.024;2023-10-31T02:23:08;10.50;99.90
30889;DHT22;51092;50.874;7.024;2023-10-31T02:24:10;10.50;99.90
30889;DHT22;51092;50.874;7.024;2023-10-31T02:25:16;10.50;99.90
30889;DHT22;51092;50.874;7.024;2023-10-31T02:26:18;10.50;99.90
30889;DHT22;51092;50.874;7.024;2023-10-31T02:27:20;10.50;99.90
30889;DHT22;51092;50.874;7.024;2023-10-31T02:28:22;10.50;99.90
30889;DHT22;51092;50.874;7.024;2023-10-31T02:29:28;10.50;99.90
30889;DHT22;51092;50.874;7.024;2023-10-31T02:30:30;10.50;99.90
30889;DHT22;51092;50.874;7.024;2023-10-31T02:31:33;10.50;99.90
30889;DHT22;51092;50.874;7.024;2023-10-31T02:32:34;10.50;99.90
30889;DHT22;51092;50.874;7.024;2023-10-31T02:33:37;10.40;99.90
30889;DHT22;51092;50.874;7.024;2023-10-31T02:34:39;10.40;99.90
30889;DHT22;51092;50.874;7.024;2023-10-31T02:35:41;10.40;99.90
30889;DHT22;51092;50.874;7.024;2023-10-31T02:36:43;10.40;99.90
30889;DHT22;51092;50.874;7.024;2023-10-31T02:37:47;10.40;99.90
30889;DHT22;51092;50.874;7.024;2023-10-31T02:38:49;10.40;99.90
30889;DHT22;51092;50.874;7.024;2023-10-31T02:39:51;10.40;99.90
30889;DHT22;51092;50.874;7.024;2023-10-31T02:40:53;10.40;99.90
30889;DHT22;51092;50.874;7.024;2023-10-31T02:41:56;10.40;99.90
30889;DHT22;51092;50.874;7.024;2023-10-31T02:42:57;10.40;99.90
30889;DHT22;51092;50.874;7.024;2023-10-31T02:43:59;10.40;99.90
30889;DHT22;51092;50.874;7.024;2023-10-31T02:45:01;10.40;99.90
30889;DHT22;51092;50.874;7.024;2023-10-31T02:46:04;10.40;99.90
30889;DHT22;51092;50.874;7.024;2023-10-31T02:47:06;10.30;99.90
30889;DHT22;51092;50.874;7.024;2023-10-31T02:48:08;10.30;99.90
30889;DHT22;51092;50.874;7.024;2023-10-31T02:49:09;10.30;99.90
30889;DHT22;51092;50.874;7.024;2023-10-31T02:50:12;10.30;99.90
30889;DHT22;51092;50.874;7.024;2023-10-31T02:51:13;10.30;99.90
30889;DHT22;51092;50.874;7.024;2023-10-31T02:52:16;10.30;99.90
30889;DHT22;51092;50.874;7.024;2023-10-31T02:53:19;10.20;99.90
30889;DHT22;51092;50.874;7.024;2023-10-31T02:54:22;10.20;99.90
30889;DHT22;51092;50.874;7.024;2023-10-31T02:55:24;10.30;99.90
30889;DHT22;51092;50.874;7.024;2023-10-31T02:56:26;10.30;99.90
30889;DHT22;51092;50.874;7.024;2023-10-31T02:57:28;10.30;99.90
30889;DHT22;51092;50.874;7.024;2023-10-31T02:58:30;10.30;99.90
30889;DHT22;51092;50.874;7.024;2023-10-31T02:59:31;10.30;99.90
30889;DHT22;51092;50.874;7.024;2023-10-31T03:00:34;10.20;99.90
30889;DHT22;51092;50.874;7.024;2023-10-31T03:01:35;10.30;99.90
30889;DHT22;51092;50.874;7.024;2023-10-31T03:02:38;10.30;99.90
30889;DHT22;51092;50.874;7.024;2023-10-31T03:03:40;10.20;99.90
30889;DHT22;51092;50.874;7.024;2023-10-31T03:04:42;10.20;99.90
30889;DHT22;51092;50.874;7.024;2023-10-31T03:05:44;10.20;99.90
30889;DHT22;51092;50.874;7.024;2023-10-31T03:06:46;10.20;99.90
30889;DHT22;51092;50.874;7.024;2023-10-31T03:07:48;10.20;99.90
30889;DHT22;51092;50.874;7.024;2023-10-31T03:08:51;10.20;99.90
30889;DHT22;51092;50.874;7.024;2023-10-31T03:09:52;10.30;99.90
30889;DHT22;51092;50.874;7.024;2023-10-31T03:10:54;10.30;99.90
30889;DHT22;51092;50.874;7.024;2023-10-31T03:11:56;10.30;99.90
30889;DHT22;51092;50.874;7.024;2023-10-31T03:12:58;10.30;99.90
30889;DHT22;51092;50.874;7.024;2023-10-31T03:14:00;10.30;99.90
30889;DHT22;51092;50.874;7.024;2023-10-31T03:15:03;10.30;99.90
30889;DHT22;51092;50.874;7.024;2023-10-31T03:16:05;10.30;99.90
30889;DHT22;51092;50.874;7.024;2023-10-31T03:17:08;10.30;99.90
30889;DHT22;51092;50.874;7.024;2023-10-31T03:18:09;10.30;99.90
30889;DHT22;51092;50.874;7.024;2023-10-31T03:19:12;10.30;99.90
30889;DHT22;51092;50.874;7.024;2023-10-31T03:20:13;10.30;99.90
30889;DHT22;51092;50.874;7.024;2023-10-31T03:21:16;10.30;99.90
30889;DHT22;51092;50.874;7.024;2023-10-31T03:22:17;10.30;99.90
30889;DHT22;51092;50.874;7.024;2023-10-31T03:23:20;10.30;99.90
30889;DHT22;51092;50.874;7.024;2023-10-31T03:24:22;10.30;99.90
30889;DHT22;51092;50.874;7.024;2023-10-31T03:25:25;10.30;99.90
30889;DHT22;51092;50.874;7.024;2023-10-31T03:26:26;10.30;99.90
30889;DHT22;51092;50.874;7.024;2023-10-31T03:27:29;10.30;99.90
30889;DHT22;51092;50.874;7.024;2023-10-31T03:28:30;10.30;99.90
30889;DHT22;51092;50.874;7.024;2023-10-31T03:29:32;10.40;99.90
30889;DHT22;51092;50.874;7.024;2023-10-31T03:30:34;10.30;99.90
30889;DHT22;51092;50.874;7.024;2023-10-31T03:31:36;10.30;99.90
30889;DHT22;51092;50.874;7.024;2023-10-31T03:32:38;10.30;99.90
30889;DHT22;51092;50.874;7.024;2023-10-31T03:33:40;10.30;99.90
30889;DHT22;51092;50.874;7.024;2023-10-31T03:34:43;10.30;99.90
30889;DHT22;51092;50.874;7.024;2023-10-31T03:35:44;10.30;99.90
30889;DHT22;51092;50.874;7.024;2023-10-31T03:36:47;10.30;99.90
30889;DHT22;51092;50.874;7.024;2023-10-31T03:37:49;10.40;99.90
30889;DHT22;51092;50.874;7.024;2023-10-31T03:38:51;10.40;99.90
30889;DHT22;51092;50.874;7.024;2023-10-31T03:39:54;10.40;99.90
30889;DHT22;51092;50.874;7.024;2023-10-31T03:40:57;10.40;99.90
30889;DHT22;51092;50.874;7.024;2023-10-31T03:41:59;10.30;99.90
30889;DHT22;51092;50.874;7.024;2023-10-31T03:43:00;10.30;99.90
30889;DHT22;51092;50.874;7.024;2023-10-31T03:44:03;10.30;99.90
30889;DHT22;51092;50.874;7.024;2023-10-31T03:45:05;10.40;99.90
30889;DHT22;51092;50.874;7.024;2023-10-31T03:46:08;10.40;99.90
30889;DHT22;51092;50.874;7.024;2023-10-31T03:47:09;10.40;99.90
30889;DHT22;51092;50.874;7.024;2023-10-31T03:48:12;10.40;99.90
30889;DHT22;51092;50.874;7.024;2023-10-31T03:49:13;10.40;99.90
30889;DHT22;51092;50.874;7.024;2023-10-31T03:50:16;10.50;99.90
30889;DHT22;51092;50.874;7.024;2023-10-31T03:51:17;10.50;99.90
30889;DHT22;51092;50.874;7.024;2023-10-31T03:52:20;10.50;99.90
30889;DHT22;51092;50.874;7.024;2023-10-31T03:53:21;10.60;99.90
30889;DHT22;51092;50.874;7.024;2023-10-31T03:54:24;10.60;99.90
30889;DHT22;51092;50.874;7.024;2023-10-31T03:55:26;10.60;99.90
30889;DHT22;51092;50.874;7.024;2023-10-31T03:56:29;10.60;99.90
30889;DHT22;51092;50.874;7.024;2023-10-31T03:57:30;10.60;99.90
30889;DHT22;51092;50.874;7.024;2023-10-31T03:58:35;10.70;99.90
30889;DHT22;51092;50.874;7.024;2023-10-31T03:59:37;10.70;99.90
30889;DHT22;51092;50.874;7.024;2023-10-31T04:00:39;10.70;99.90
30889;DHT22;51092;50.874;7.024;2023-10-31T04:01:42;10.80;99.90
30889;DHT22;51092;50.874;7.024;2023-10-31T04:02:43;10.80;99.90
30889;DHT22;51092;50.874;7.024;2023-10-31T04:03:45;10.80;99.90
30889;DHT22;51092;50.874;7.024;2023-10-31T04:04:47;10.80;99.90
30889;DHT22;51092;50.874;7.024;2023-10-31T04:05:50;10.90;99.90
30889;DHT22;51092;50.874;7.024;2023-10-31T04:06:51;10.90;99.90
30889;DHT22;51092;50.874;7.024;2023-10-31T04:07:54;10.90;99.90
30889;DHT22;51092;50.874;7.024;2023-10-31T04:08:55;10.90;99.90
30889;DHT22;51092;50.874;7.024;2023-10-31T04:09:58;10.90;99.90
30889;DHT22;51092;50.874;7.024;2023-10-31T04:11:00;10.90;99.90
30889;DHT22;51092;50.874;7.024;2023-10-31T04:12:03;11.00;99.90
30889;DHT22;51092;50.874;7.024;2023-10-31T04:13:05;10.90;99.90
30889;DHT22;51092;50.874;7.024;2023-10-31T04:14:08;10.90;99.90
30889;DHT22;51092;50.874;7.024;2023-10-31T04:15:09;11.00;99.90
30889;DHT22;51092;50.874;7.024;2023-10-31T04:16:12;11.00;99.90
30889;DHT22;51092;50.874;7.024;2023-10-31T04:17:13;11.00;99.90
30889;DHT22;51092;50.874;7.024;2023-10-31T04:18:16;11.00;99.90
30889;DHT22;51092;50.874;7.024;2023-10-31T04:19:18;11.00;99.90
30889;DHT22;51092;50.874;7.024;2023-10-31T04:20:20;11.00;99.90
30889;DHT22;51092;50.874;7.024;2023-10-31T04:21:22;11.00;99.90
30889;DHT22;51092;50.874;7.024;2023-10-31T04:22:24;10.90;99.90
30889;DHT22;51092;50.874;7.024;2023-10-31T04:23:26;10.90;99.90
30889;DHT22;51092;50.874;7.024;2023-10-31T04:24:27;10.90;99.90
30889;DHT22;51092;50.874;7.024;2023-10-31T04:25:30;10.90;99.90
30889;DHT22;51092;50.874;7.024;2023-10-31T04:26:33;10.90;99.90
30889;DHT22;51092;50.874;7.024;2023-10-31T04:27:35;11.00;99.90
30889;DHT22;51092;50.874;7.024;2023-10-31T04:28:37;10.90;99.90
30889;DHT22;51092;50.874;7.024;2023-10-31T04:29:38;10.90;99.90
30889;DHT22;51092;50.874;7.024;2023-10-31T04:30:39;10.90;99.90
30889;DHT22;51092;50.874;7.024;2023-10-31T04:31:41;10.90;99.90
30889;DHT22;51092;50.874;7.024;2023-10-31T04:32:42;10.90;99.90
30889;DHT22;51092;50.874;7.024;2023-10-31T04:33:44;10.90;99.90
30889;DHT22;51092;50.874;7.024;2023-10-31T04:35:00;10.90;99.90
30889;DHT22;51092;50.874;7.024;2023-10-31T04:36:03;10.90;99.90
30889;DHT22;51092;50.874;7.024;2023-10-31T04:37:06;10.90;99.90
30889;DHT22;51092;50.874;7.024;2023-10-31T04:38:08;10.90;99.90
30889;DHT22;51092;50.874;7.024;2023-10-31T04:39:10;10.90;99.90
30889;DHT22;51092;50.874;7.024;2023-10-31T04:40:12;10.90;99.90
30889;DHT22;51092;50.874;7.024;2023-10-31T04:41:15;11.00;99.90
30889;DHT22;51092;50.874;7.024;2023-10-31T04:42:18;11.00;99.90
30889;DHT22;51092;50.874;7.024;2023-10-31T04:43:21;11.00;99.90
30889;DHT22;51092;50.874;7.024;2023-10-31T04:44:23;11.00;99.90
30889;DHT22;51092;50.874;7.024;2023-10-31T04:45:25;11.00;99.90
30889;DHT22;51092;50.874;7.024;2023-10-31T04:46:26;11.10;99.90
30889;DHT22;51092;50.874;7.024;2023-10-31T04:47:29;11.20;99.90
30889;DHT22;51092;50.874;7.024;2023-10-31T04:48:30;11.20;99.90
30889;DHT22;51092;50.874;7.024;2023-10-31T04:49:34;11.30;99.90
30889;DHT22;51092;50.874;7.024;2023-10-31T04:50:36;11.40;99.90
30889;DHT22;51092;50.874;7.024;2023-10-31T04:51:38;11.40;99.90
30889;DHT22;51092;50.874;7.024;2023-10-31T04:52:40;11.50;99.90
30889;DHT22;51092;50.874;7.024;2023-10-31T04:53:43;11.50;99.90
30889;DHT22;51092;50.874;7.024;2023-10-31T04:54:44;11.50;99.90
30889;DHT22;51092;50.874;7.024;2023-10-31T04:55:47;11.60;99.90
30889;DHT22;51092;50.874;7.024;2023-10-31T04:56:49;11.60;99.90
30889;DHT22;51092;50.874;7.024;2023-10-31T04:57:53;11.60;99.90
30889;DHT22;51092;50.874;7.024;2023-10-31T04:58:54;11.60;99.90
30889;DHT22;51092;50.874;7.024;2023-10-31T04:59:57;11.60;99.90
30889;DHT22;51092;50.874;7.024;2023-10-31T05:01:00;11.60;99.90
30889;DHT22;51092;50.874;7.024;2023-10-31T05:02:02;11.60;99.90
30889;DHT22;51092;50.874;7.024;2023-10-31T05:03:04;11.60;99.90
30889;DHT22;51092;50.874;7.024;2023-10-31T05:04:06;11.60;99.90
30889;DHT22;51092;50.874;7.024;2023-10-31T05:05:08;11.60;99.90
30889;DHT22;51092;50.874;7.024;2023-10-31T05:06:11;11.60;99.90
30889;DHT22;51092;50.874;7.024;2023-10-31T05:07:12;11.60;99.90
30889;DHT22;51092;50.874;7.024;2023-10-31T05:08:15;11.50;99.90
30889;DHT22;51092;50.874;7.024;2023-10-31T05:09:16;11.60;99.90
30889;DHT22;51092;50.874;7.024;2023-10-31T05:10:19;11.60;99.90
30889;DHT22;51092;50.874;7.024;2023-10-31T05:11:20;11.50;99.90
30889;DHT22;51092;50.874;7.024;2023-10-31T05:12:23;11.50;99.90
30889;DHT22;51092;50.874;7.024;2023-10-31T05:13:26;11.50;99.90
30889;DHT22;51092;50.874;7.024;2023-10-31T05:14:29;11.40;99.90
30889;DHT22;51092;50.874;7.024;2023-10-31T05:15:30;11.50;99.90
30889;DHT22;51092;50.874;7.024;2023-10-31T05:16:39;11.40;99.90
30889;DHT22;51092;50.874;7.024;2023-10-31T05:17:43;11.40;99.90
30889;DHT22;51092;50.874;7.024;2023-10-31T05:18:46;11.40;99.90
30889;DHT22;51092;50.874;7.024;2023-10-31T05:19:47;11.40;99.90
30889;DHT22;51092;50.874;7.024;2023-10-31T05:20:50;11.40;99.90
30889;DHT22;51092;50.874;7.024;2023-10-31T05:21:52;11.40;99.90
30889;DHT22;51092;50.874;7.024;2023-10-31T05:22:54;11.40;99.90
30889;DHT22;51092;50.874;7.024;2023-10-31T05:23:56;11.40;99.90
30889;DHT22;51092;50.874;7.024;2023-10-31T05:24:57;11.30;99.90
30889;DHT22;51092;50.874;7.024;2023-10-31T05:26:00;11.30;99.90
30889;DHT22;51092;50.874;7.024;2023-10-31T05:27:15;11.30;99.90
30889;DHT22;51092;50.874;7.024;2023-10-31T05:28:18;11.30;99.90
30889;DHT22;51092;50.874;7.024;2023-10-31T05:29:21;11.30;99.90
30889;DHT22;51092;50.874;7.024;2023-10-31T05:30:23;11.30;99.90
30889;DHT22;51092;50.874;7.024;2023-10-31T05:31:26;11.30;99.90
30889;DHT22;51092;50.874;7.024;2023-10-31T05:32:28;11.30;99.90
30889;DHT22;51092;50.874;7.024;2023-10-31T05:33:30;11.30;99.90
30889;DHT22;51092;50.874;7.024;2023-10-31T05:34:32;11.20;99.90
30889;DHT22;51092;50.874;7.024;2023-10-31T05:35:34;11.20;99.90
30889;DHT22;51092;50.874;7.024;2023-10-31T05:36:36;11.20;99.90
30889;DHT22;51092;50.874;7.024;2023-10-31T05:37:38;11.20;99.90
30889;DHT22;51092;50.874;7.024;2023-10-31T05:38:40;11.20;99.90
30889;DHT22;51092;50.874;7.024;2023-10-31T05:39:41;11.30;99.90
30889;DHT22;51092;50.874;7.024;2023-10-31T05:40:43;11.20;99.90
30889;DHT22;51092;50.874;7.024;2023-10-31T05:41:44;11.20;99.90
30889;DHT22;51092;50.874;7.024;2023-10-31T05:42:46;11.10;99.90
30889;DHT22;51092;50.874;7.024;2023-10-31T05:43:47;11.20;99.90
30889;DHT22;51092;50.874;7.024;2023-10-31T05:44:51;11.10;99.90
30889;DHT22;51092;50.874;7.024;2023-10-31T05:45:53;11.20;99.90
30889;DHT22;51092;50.874;7.024;2023-10-31T05:46:55;11.20;99.90
30889;DHT22;51092;50.874;7.024;2023-10-31T05:47:56;11.20;99.90
30889;DHT22;51092;50.874;7.024;2023-10-31T05:48:59;11.10;99.90
30889;DHT22;51092;50.874;7.024;2023-10-31T05:50:00;11.10;99.90
30889;DHT22;51092;50.874;7.024;2023-10-31T05:51:03;11.10;99.90
30889;DHT22;51092;50.874;7.024;2023-10-31T05:52:05;11.10;99.90
30889;DHT22;51092;50.874;7.024;2023-10-31T05:53:07;11.10;99.90
30889;DHT22;51092;50.874;7.024;2023-10-31T05:54:09;11.10;99.90
30889;DHT22;51092;50.874;7.024;2023-10-31T05:55:11;11.10;99.90
30889;DHT22;51092;50.874;7.024;2023-10-31T05:56:13;11.10;99.90
30889;DHT22;51092;50.874;7.024;2023-10-31T05:57:16;11.10;99.90
30889;DHT22;51092;50.874;7.024;2023-10-31T05:58:18;11.10;99.90
30889;DHT22;51092;50.874;7.024;2023-10-31T05:59:20;11.00;99.90
30889;DHT22;51092;50.874;7.024;2023-10-31T06:00:23;11.00;99.90
30889;DHT22;51092;50.874;7.024;2023-10-31T06:01:25;11.10;99.90
30889;DHT22;51092;50.874;7.024;2023-10-31T06:02:27;11.10;99.90
30889;DHT22;51092;50.874;7.024;2023-10-31T06:03:31;11.10;99.90
30889;DHT22;51092;50.874;7.024;2023-10-31T06:04:32;11.10;99.90
30889;DHT22;51092;50.874;7.024;2023-10-31T06:05:35;11.10;99.90
30889;DHT22;51092;50.874;7.024;2023-10-31T06:06:37;11.10;99.90
30889;DHT22;51092;50.874;7.024;2023-10-31T06:07:43;11.10;99.90
30889;DHT22;51092;50.874;7.024;2023-10-31T06:08:45;11.10;99.90
30889;DHT22;51092;50.874;7.024;2023-10-31T06:09:47;11.10;99.90
30889;DHT22;51092;50.874;7.024;2023-10-31T06:10:49;11.10;99.90
30889;DHT22;51092;50.874;7.024;2023-10-31T06:11:51;11.10;99.90
30889;DHT22;51092;50.874;7.024;2023-10-31T06:12:53;11.10;99.90
30889;DHT22;51092;50.874;7.024;2023-10-31T06:13:55;11.10;99.90
30889;DHT22;51092;50.874;7.024;2023-10-31T06:14:57;11.20;99.90
30889;DHT22;51092;50.874;7.024;2023-10-31T06:16:01;11.20;99.90
30889;DHT22;51092;50.874;7.024;2023-10-31T06:17:03;11.30;99.90
30889;DHT22;51092;50.874;7.024;2023-10-31T06:18:05;11.30;99.90
30889;DHT22;51092;50.874;7.024;2023-10-31T06:19:07;11.30;99.90
30889;DHT22;51092;50.874;7.024;2023-10-31T06:20:09;11.30;99.90
30889;DHT22;51092;50.874;7.024;2023-10-31T06:21:12;11.30;99.90
30889;DHT22;51092;50.874;7.024;2023-10-31T06:22:13;11.30;99.90
30889;DHT22;51092;50.874;7.024;2023-10-31T06:23:16;11.30;99.90
30889;DHT22;51092;50.874;7.024;2023-10-31T06:24:17;11.30;99.90
30889;DHT22;51092;50.874;7.024;2023-10-31T06:25:19;11.30;99.90
30889;DHT22;51092;50.874;7.024;2023-10-31T06:26:21;11.30;99.90
30889;DHT22;51092;50.874;7.024;2023-10-31T06:27:23;11.30;99.90
30889;DHT22;51092;50.874;7.024;2023-10-31T06:28:25;11.30;99.90
30889;DHT22;51092;50.874;7.024;2023-10-31T06:29:26;11.30;99.90
30889;DHT22;51092;50.874;7.024;2023-10-31T06:30:29;11.30;99.90
30889;DHT22;51092;50.874;7.024;2023-10-31T06:31:31;11.30;99.90
30889;DHT22;51092;50.874;7.024;2023-10-31T06:32:34;11.30;99.90